ENSGENBR

Guest
Details From ENSG - SOGNDAL Haukasen
To ENBR - Bergen Lufthavn Flesland
Flight Number -
Tags generated
Created
Modified
Stats Distance 77 nm / 142 km
Max Altitude 0 ft / 0 m
Waypoints 3
Social Downloads 0
Likes 0
Share VATSIM

Download

Looking for another format? Having issues loading an existing format? Contact us
Advertisement - Login to hide

Notes

Basic altitude profile: - Ascent Rate: 2500ft/min - Ascent Speed: 250kts - Cruise Altitude: 35000ft - Cruise Speed: 420kts - Descent Rate: 1500ft/min - Descent Speed: 250kts Options: - Use NATs: yes - Use PACOTS: yes - Use low airways: yes - Use high airways: yes

Route

ENSG FLE ENBR

ID Type Via Altitude Latitude Longitude Leg Dist Tot Dist Heading (true) Name
O ENSG APT - 0 ft / 0 m 61.15579˚ 7.13628˚ - 0 nm - SOGNDAL Haukasen
FLE VOR - 0 ft / 0 m 60.30004˚ 5.21359˚ 76 nm 76 nm 229° / 227° -
O ENBR APT - 0 ft / 0 m 60.29339˚ 5.21814˚ 0 nm 76 nm 161° / 161° Bergen Lufthavn Flesland

Altitude Profile

Advertisement - Login to hide

ENSG

Details ICAO ENSG (SOG)
Name SOGNDAL Haukasen
Region Norway
Timezone Europe/Oslo (UTC+1.0)
Stats Elevation 1,633 ft / 498 m (AMSL)
Location 61.155792° 7.136278°
Runways 1
Magnetic Variation 1.669° E

METAR

ENSG 130850Z 06005KT 9999 FEW008 SCT033 BKN120 M08/M09 Q0986 RMK WIND 3806FT 16012KT

Decode

TAF

Not found

Departure Runways

ID Width Length Bearing (true) Bearing (mag) Surface Threshold Offset Overrun Length
06 90 ft / 27 m 3,631 ft / 1,107 m 59.27° 57.60° Asphalt 550 ft / 168 m 0 ft / 0 m
24 90 ft / 27 m 3,631 ft / 1,107 m 239.29° 237.62° Asphalt 680 ft / 207 m 0 ft / 0 m

ENBR

Details ICAO ENBR (BGO)
Name Bergen Lufthavn Flesland
Region Norway
Timezone Europe/Oslo (UTC+1.0)
Stats Elevation 165 ft / 50 m (AMSL)
Location 60.293388° 5.218140°
Runways 1
Magnetic Variation 0.840° E

METAR

ENBR 130920Z 13012KT 9999 -RA SCT020 BKN035 02/M01 Q0983 TEMPO 15022G35KT 4000 RASN VV012 RMK WIND 1200FT 13028KT

Decode

TAF

TAF ENBR 130500Z 1306/1406 14012KT 9999 SCT015 BKN030 PROB30 TEMPO 1306/1310 15022G35KT 2000 SNRA VV009 BECMG 1309/1311 21012KT TEMPO 1310/1316 22020G30KT 4000 SHRAGS BKN014CB BECMG 1316/1318 15010KT TEMPO 1316/1406 SHRA BKN014CB

Decode

Destination Runways

ID Width Length Bearing (true) Bearing (mag) Surface Threshold Offset Overrun Length
17 148 ft / 45 m 9,793 ft / 2,985 m 170.56° 169.72° Asphalt 886 ft / 270 m 0 ft / 0 m
35 148 ft / 45 m 9,793 ft / 2,985 m 350.57° 349.73° Asphalt 886 ft / 270 m 0 ft / 0 m

Approach Navaids

Runway Type Ident Frequency Range Bearing (true) Bearing (mag) Slope Elevation
17 Localiser BR 109.90 MHz 18 nm / 33 km 170.56° 169.72° - 165 ft / 50 m (AMSL)
17 Glidescope BR 109.90 MHz 10 nm / 19 km 170.56° 169.72° 3.10° 165 ft / 50 m (AMSL)
35 Localiser BG 110.50 MHz 18 nm / 33 km 350.55° 349.71° - 165 ft / 50 m (AMSL)
35 Glidescope BG 110.50 MHz 10 nm / 19 km 350.56° 349.72° 3.00° 165 ft / 50 m (AMSL)